AR73 weather

Piggott Community Hospital Heliport
Piggott, Arkansas, United States

Public forecast

Using degrees Fahrenheit for public forecast. Weather courtesy of forecast.io.

METAR (pilot weather report)

Closest report is Kennett Memorial Airport, 12.7 nm (23.5 km) SE. Retrieved 2019/05/24 18:35 UTC (24 minutes ago):

KTKX 241835Z AUTO 20008G18KT 10SM FEW049 FEW060 32/21 A3010 RMK AO2

TAF (pilot weather forecast)

Closest forecast is Jonesboro Municipal Airport, 39.8 nm (73.8 km) SSW. Retrieved 2019/05/24 18:48 UTC (11 minutes ago):

TAF KJBR 241746Z 2418/2518 21011G18KT P6SM FEW050 SCT250 FM250200 19004KT P6SM SKC FM251500 23012G18KT P6SM FEW040 SCT250